Al Mukalla, Yemen
Current Conditions -  °F | °C
As of 4:00 PM on Monday 20 Oct 2014 (Local Time) from OYRN Reporting Station
Few Clouds Few Clouds  
Wind Chill: 86°   Ceiling: Unl
Heat Index: 93°   Visibility: 6mi
Dew Point: 73°   Wind: 8mph
Humidity: 66%   Direction: 120°ESE
Pressure: 29.85"   Gusts: NA
Location:  14.54°N, 49.13°E
Report Text: OYRN 201300Z 12007KT 080V160 9999 FEW020 30/23 Q1011
Loading
Personal Weather Stations






























Interactive Weather Map
Tropical Storm Tracking
New forecast layout! Learn more

10-Day Weather Forecast

Advertisements
Track Severe Weather on mobile